Time;durP1;ratioP1;P1;durP2;ratioP2;P2;SDS_P1;SDS_P2;PMS_P1;PMS_P2;Temp;Humidity;BMP_temperature;BMP_pressure;BME280_temperature;BME280_humidity;BME280_pressure;Samples;Min_cycle;Max_cycle;Signal;HPM_P1;HPM_P2
2022/07/19 00:02:08;;;;;;;1.33;1.23;;;;;;;19.02;61.37;100542.34;5095304;28;20445;-47
2022/07/19 00:04:35;;;;;;;1.10;1.00;;;;;;;18.89;62.63;100542.22;5095318;28;20535;-49
2022/07/19 00:07:03;;;;;;;1.40;0.77;;;;;;;18.86;62.40;100542.41;5094588;28;20481;-47
2022/07/19 00:09:30;;;;;;;8.63;0.90;;;;;;;18.71;62.64;100532.53;5095325;28;20464;-48
2022/07/19 00:11:57;;;;;;;1.97;1.10;;;;;;;18.42;63.95;100540.44;5094907;28;20449;-47
2022/07/19 00:14:23;;;;;;;8.33;1.33;;;;;;;18.61;63.54;100534.84;5095228;28;20451;-47
2022/07/19 00:16:50;;;;;;;5.20;0.87;;;;;;;18.58;63.83;100543.97;5094696;28;20834;-48
2022/07/19 00:19:17;;;;;;;1.33;0.80;;;;;;;18.62;63.41;100536.56;5094663;28;20465;-47
2022/07/19 00:21:43;;;;;;;1.10;1.00;;;;;;;18.51;64.08;100539.91;5094729;28;20962;-48
2022/07/19 00:24:10;;;;;;;0.73;0.60;;;;;;;18.25;64.51;100538.69;5095297;28;20449;-48
2022/07/19 00:26:36;;;;;;;9.73;0.80;;;;;;;18.31;63.80;100534.78;5081442;28;20450;-48
2022/07/19 00:29:03;;;;;;;1.20;0.80;;;;;;;18.24;64.46;100544.16;5094927;28;20862;-48
2022/07/19 00:31:30;;;;;;;0.70;0.60;;;;;;;18.34;64.27;100540.84;5092689;28;20466;-48
2022/07/19 00:33:57;;;;;;;0.77;0.63;;;;;;;18.42;64.35;100548.50;5094592;28;20441;-49
2022/07/19 00:36:23;;;;;;;1.73;0.90;;;;;;;18.41;64.84;100544.09;5094557;28;20457;-48
2022/07/19 00:38:50;;;;;;;5.97;1.20;;;;;;;18.47;64.88;100549.09;5094750;28;20468;-47
2022/07/19 00:41:16;;;;;;;22.37;1.37;;;;;;;18.40;65.43;100539.66;5094755;28;20452;-48
2022/07/19 00:43:43;;;;;;;12.27;1.63;;;;;;;18.40;65.80;100546.88;5094317;28;20541;-48
2022/07/19 00:46:18;;;;;;;1.07;0.87;;;;;;;18.56;65.06;100542.34;5094416;28;20460;-48
2022/07/19 00:48:46;;;;;;;5.80;1.20;;;;;;;18.35;66.09;100550.66;5094132;28;20938;-50
2022/07/19 00:51:16;;;;;;;1.10;0.93;;;;;;;18.13;66.44;100538.50;5094412;28;20536;-48
2022/07/19 00:53:44;;;;;;;0.90;0.80;;;;;;;18.10;66.06;100539.56;5094405;28;20455;-48
2022/07/19 00:56:12;;;;;;;2.80;0.90;;;;;;;18.00;66.31;100543.72;5093778;28;20445;-47
2022/07/19 00:58:41;;;;;;;13.53;1.00;;;;;;;17.87;66.44;100538.13;5093987;28;20497;-49
2022/07/19 01:01:09;;;;;;;35.10;1.10;;;;;;;17.98;66.26;100529.47;5094057;28;20445;-48
2022/07/19 01:03:39;;;;;;;1.13;1.00;;;;;;;17.96;66.12;100532.25;5094416;28;20449;-48
2022/07/19 01:06:08;;;;;;;10.23;1.37;;;;;;;17.74;67.03;100532.56;5093447;28;20442;-47
2022/07/19 01:08:35;;;;;;;6.80;0.83;;;;;;;17.82;67.47;100532.16;5093395;28;20489;-48
2022/07/19 01:11:05;;;;;;;1.97;0.80;;;;;;;17.99;66.66;100528.53;5073867;28;20450;-48
2022/07/19 01:13:32;;;;;;;0.60;0.50;;;;;;;18.16;66.47;100533.81;5073681;28;20985;-48
2022/07/19 01:15:59;;;;;;;1.07;0.97;;;;;;;17.89;67.67;100529.97;5073871;28;20454;-48
2022/07/19 01:18:26;;;;;;;1.10;0.80;;;;;;;17.69;67.56;100531.06;5073280;28;20988;-48
2022/07/19 01:20:52;;;;;;;1.70;1.13;;;;;;;17.32;68.78;100538.38;5073639;28;20961;-48
2022/07/19 01:23:19;;;;;;;7.13;1.80;;;;;;;17.55;68.25;100537.16;5074519;28;20450;-48
2022/07/19 01:25:45;;;;;;;1.07;0.97;;;;;;;17.51;68.60;100535.56;5085880;28;20939;-47
2022/07/19 01:28:12;;;;;;;1.00;0.90;;;;;;;17.54;68.38;100538.09;5088109;28;20492;-49
2022/07/19 01:30:38;;;;;;;0.90;0.73;;;;;;;17.53;68.79;100539.03;5093546;28;20456;-47
2022/07/19 01:33:05;;;;;;;1.00;0.97;;;;;;;17.68;68.30;100548.09;5092039;28;20457;-47
2022/07/19 01:35:31;;;;;;;0.63;0.60;;;;;;;17.62;68.79;100545.75;5093667;28;20449;-48
2022/07/19 01:37:58;;;;;;;3.13;0.93;;;;;;;17.44;69.58;100550.28;5093311;28;20460;-48
2022/07/19 01:40:25;;;;;;;1.30;1.20;;;;;;;17.40;69.38;100546.00;5094461;28;20444;-49
2022/07/19 01:42:52;;;;;;;14.13;1.00;;;;;;;17.41;68.69;100545.09;5093385;28;20892;-48
2022/07/19 01:45:20;;;;;;;1.00;0.70;;;;;;;17.48;68.58;100555.41;5093595;28;20543;-48
2022/07/19 01:47:47;;;;;;;1.73;1.47;;;;;;;17.37;69.09;100548.88;5093169;28;20503;-47
2022/07/19 01:50:15;;;;;;;3.10;1.37;;;;;;;17.23;69.46;100541.53;5093416;28;20452;-47
2022/07/19 01:52:42;;;;;;;1.70;1.00;;;;;;;17.11;70.00;100544.84;5093218;28;20452;-48
2022/07/19 01:55:14;;;;;;;1.13;0.70;;;;;;;17.22;69.57;100542.47;5092817;28;20444;-48
2022/07/19 01:57:41;;;;;;;2.70;1.10;;;;;;;17.24;69.59;100539.72;5092670;28;20469;-48
2022/07/19 02:00:08;;;;;;;4.07;0.80;;;;;;;17.21;70.25;100538.06;5093001;28;20444;-48
2022/07/19 02:02:35;;;;;;;0.80;0.77;;;;;;;17.27;70.06;100528.78;5093230;28;20441;-47
2022/07/19 02:05:01;;;;;;;2.40;0.60;;;;;;;17.34;70.09;100524.84;5092876;28;20445;-48
2022/07/19 02:07:29;;;;;;;2.93;1.63;;;;;;;17.31;70.13;100517.81;5092655;28;20825;-48
2022/07/19 02:09:57;;;;;;;7.73;0.80;;;;;;;17.50;69.67;100516.84;5093005;28;20453;-48
2022/07/19 02:12:24;;;;;;;1.37;0.80;;;;;;;17.41;70.01;100515.53;5092721;28;20938;-49
2022/07/19 02:14:50;;;;;;;2.43;0.63;;;;;;;17.81;68.60;100510.69;5092920;28;21315;-48
2022/07/19 02:17:17;;;;;;;0.97;0.63;;;;;;;17.46;68.90;100517.00;5092571;28;20800;-49
2022/07/19 02:19:43;;;;;;;4.27;1.33;;;;;;;17.13;70.13;100514.28;5092702;28;20448;-48
2022/07/19 02:22:10;;;;;;;3.57;1.30;;;;;;;16.98;70.76;100504.31;5092644;28;20467;-48
2022/07/19 02:24:36;;;;;;;4.00;0.93;;;;;;;16.89;71.33;100502.13;5092591;28;20821;-48
2022/07/19 02:27:03;;;;;;;0.60;0.50;;;;;;;16.64;71.92;100510.50;5079044;28;20445;-47
2022/07/19 02:29:29;;;;;;;6.10;0.70;;;;;;;16.64;71.69;100489.03;5092901;28;20496;-48
2022/07/19 02:31:55;;;;;;;0.60;0.57;;;;;;;16.76;72.09;100501.88;5091131;28;20461;-48
2022/07/19 02:34:22;;;;;;;1.70;1.20;;;;;;;16.74;72.20;100501.09;5093058;28;20456;-48
2022/07/19 02:36:48;;;;;;;10.43;0.90;;;;;;;16.66;72.92;100502.38;5092502;28;20451;-49
2022/07/19 02:39:15;;;;;;;14.40;1.43;;;;;;;16.95;71.72;100501.78;5092596;28;20476;-49
2022/07/19 02:41:41;;;;;;;7.67;1.87;;;;;;;16.58;72.62;100513.47;5092432;28;20455;-48
2022/07/19 02:44:08;;;;;;;1.90;0.50;;;;;;;16.55;73.20;100510.97;5092479;28;20466;-48
2022/07/19 02:46:34;;;;;;;7.93;1.07;;;;;;;16.57;73.21;100503.69;5092606;28;20456;-48
2022/07/19 02:49:01;;;;;;;12.77;1.00;;;;;;;16.45;73.18;100507.00;5092471;28;20485;-47
2022/07/19 02:51:27;;;;;;;0.80;0.73;;;;;;;16.40;73.27;100512.59;5092783;28;20539;-48
2022/07/19 02:53:53;;;;;;;1.43;1.10;;;;;;;16.35;73.59;100514.63;5092141;28;20829;-48
2022/07/19 02:56:20;;;;;;;1.27;1.17;;;;;;;16.17;74.00;100516.41;5091173;28;20460;-48
2022/07/19 02:58:46;;;;;;;0.70;0.57;;;;;;;16.18;74.29;100519.97;5092165;28;20467;-48
2022/07/19 03:01:13;;;;;;;1.10;0.60;;;;;;;16.07;75.21;100511.53;5092351;28;20806;-48
2022/07/19 03:03:47;;;;;;;1.57;0.80;;;;;;;16.20;74.48;100513.56;5092084;28;20453;-48
2022/07/19 03:06:16;;;;;;;1.23;1.13;;;;;;;16.14;74.82;100513.84;5091971;28;20930;-47
2022/07/19 03:08:44;;;;;;;1.30;1.20;;;;;;;16.20;74.56;100518.94;5078320;28;20490;-47
2022/07/19 03:11:11;;;;;;;6.13;0.90;;;;;;;16.22;74.64;100518.84;5092224;28;20445;-48
2022/07/19 03:13:38;;;;;;;0.60;0.47;;;;;;;16.14;75.17;100519.22;5091771;28;20448;-48
2022/07/19 03:16:05;;;;;;;1.20;1.10;;;;;;;15.99;75.99;100511.91;5083125;28;21038;-49
2022/07/19 03:18:32;;;;;;;6.20;1.27;;;;;;;16.01;76.21;100518.06;5086990;28;20464;-47
2022/07/19 03:20:59;;;;;;;4.83;1.60;;;;;;;15.89;76.35;100519.50;5091791;28;20921;-49
2022/07/19 03:23:36;;;;;;;7.97;1.37;;;;;;;15.74;76.66;100519.34;5091641;28;20455;-47
2022/07/19 03:26:04;;;;;;;0.93;0.80;;;;;;;15.79;76.47;100520.00;5081861;28;20445;-48
2022/07/19 03:28:30;;;;;;;2.10;0.90;;;;;;;15.72;76.43;100524.78;5088860;28;20496;-48
2022/07/19 03:30:57;;;;;;;3.83;1.33;;;;;;;15.55;77.17;100533.56;5094362;28;20465;-49
2022/07/19 03:33:23;;;;;;;2.10;1.90;;;;;;;15.68;77.10;100524.06;5093794;28;20835;-48
2022/07/19 03:35:50;;;;;;;1.17;1.07;;;;;;;15.73;76.90;100523.84;5096011;28;20544;-49
2022/07/19 03:38:16;;;;;;;5.20;1.87;;;;;;;15.80;76.86;100522.63;5095943;28;20465;-48
2022/07/19 03:40:47;;;;;;;2.20;0.97;;;;;;;15.79;76.94;100525.38;5096070;28;20535;-49
2022/07/19 03:43:17;;;;;;;2.10;0.90;;;;;;;15.74;76.89;100533.59;5095648;28;20511;-49
2022/07/19 03:45:45;;;;;;;0.93;0.70;;;;;;;15.56;77.59;100534.44;5095574;28;20910;-49
2022/07/19 03:48:12;;;;;;;0.87;0.70;;;;;;;15.63;76.98;100530.56;5095079;28;20993;-50
2022/07/19 03:50:39;;;;;;;8.93;1.20;;;;;;;15.57;77.10;100533.47;5095754;28;20934;-49
2022/07/19 03:53:06;;;;;;;1.07;0.97;;;;;;;15.54;77.89;100531.81;5095951;28;20471;-48
2022/07/19 03:55:33;;;;;;;12.60;1.00;;;;;;;15.60;78.21;100533.38;5096284;28;20448;-49
2022/07/19 03:57:59;;;;;;;13.40;1.03;;;;;;;15.62;78.35;100542.22;5094851;28;20470;-48
2022/07/19 04:00:26;;;;;;;0.90;0.80;;;;;;;15.61;78.39;100530.63;5095845;28;20455;-49
2022/07/19 04:02:52;;;;;;;1.50;1.00;;;;;;;15.71;78.15;100528.41;5095790;28;20459;-48
2022/07/19 04:05:19;;;;;;;1.30;1.00;;;;;;;15.77;77.97;100528.13;5095954;28;20550;-50
2022/07/19 04:07:45;;;;;;;1.47;1.37;;;;;;;15.64;78.60;100529.63;5081989;28;20477;-49
2022/07/19 04:10:12;;;;;;;1.10;0.90;;;;;;;15.64;78.78;100529.63;5095422;28;20444;-49
2022/07/19 04:12:38;;;;;;;1.10;1.00;;;;;;;15.77;78.23;100533.50;5095279;28;20459;-49
2022/07/19 04:15:06;;;;;;;23.07;1.73;;;;;;;15.78;78.21;100531.69;5094887;28;20938;-49
2022/07/19 04:17:33;;;;;;;1.17;0.77;;;;;;;15.69;78.13;100533.84;5095096;28;20796;-48
2022/07/19 04:19:59;;;;;;;0.90;0.60;;;;;;;15.84;77.82;100531.38;5095005;28;20441;-48
2022/07/19 04:22:26;;;;;;;4.43;0.80;;;;;;;15.94;77.63;100535.38;5095192;28;20472;-49
2022/07/19 04:24:52;;;;;;;1.10;0.70;;;;;;;15.84;78.29;100534.94;5094831;28;20444;-48
2022/07/19 04:27:19;;;;;;;0.80;0.70;;;;;;;15.84;78.06;100531.38;5081493;28;20441;-48
2022/07/19 04:29:45;;;;;;;3.60;0.93;;;;;;;16.00;77.63;100535.94;5094626;28;20497;-49
2022/07/19 04:32:12;;;;;;;0.90;0.83;;;;;;;16.23;76.88;100537.56;5093059;28;20456;-48
2022/07/19 04:34:45;;;;;;;5.27;1.20;;;;;;;16.20;77.75;100540.38;5094853;28;20449;-48
2022/07/19 04:37:12;;;;;;;0.90;0.80;;;;;;;16.45;76.72;100536.53;5094694;28;20497;-49
2022/07/19 04:39:38;;;;;;;33.60;2.67;;;;;;;16.44;76.45;100538.31;5094258;28;20464;-48
2022/07/19 04:42:05;;;;;;;1.20;0.87;;;;;;;16.63;76.65;100537.44;5094586;28;20449;-49
2022/07/19 04:44:31;;;;;;;7.30;1.20;;;;;;;17.26;74.43;100540.50;5094732;28;20445;-49
2022/07/19 04:46:58;;;;;;;0.83;0.60;;;;;;;18.40;69.21;100542.34;5094591;28;20515;-48
2022/07/19 04:49:24;;;;;;;5.50;1.10;;;;;;;18.92;67.25;100550.13;5094200;28;20520;-48
2022/07/19 04:51:51;;;;;;;6.43;1.40;;;;;;;19.81;64.16;100557.28;5094546;28;20468;-47
2022/07/19 04:54:17;;;;;;;18.67;1.37;;;;;;;20.35;62.16;100552.03;5094652;28;20452;-49
2022/07/19 04:56:44;;;;;;;1.10;0.70;;;;;;;20.77;60.00;100544.78;5084156;28;20450;-47
2022/07/19 04:59:10;;;;;;;1.60;1.37;;;;;;;21.11;58.97;100540.69;5089501;28;20465;-48
2022/07/19 05:01:37;;;;;;;9.33;1.40;;;;;;;21.25;58.54;100546.06;5094214;28;20488;-48
2022/07/19 05:04:04;;;;;;;3.43;1.30;;;;;;;21.56;57.41;100543.91;5094206;28;20452;-49
2022/07/19 05:06:31;;;;;;;1.67;1.27;;;;;;;21.78;56.63;100536.00;5094231;28;20445;-48
2022/07/19 05:08:57;;;;;;;1.00;0.90;;;;;;;22.12;54.97;100539.03;5093944;28;20489;-48
2022/07/19 05:11:24;;;;;;;2.20;1.37;;;;;;;22.50;54.19;100540.78;5093730;28;20445;-47
2022/07/19 05:13:50;;;;;;;2.53;1.50;;;;;;;22.37;54.29;100540.81;5094262;28;20449;-48
2022/07/19 05:16:17;;;;;;;3.40;1.43;;;;;;;22.71;53.58;100537.31;5094182;28;20510;-49
2022/07/19 05:18:43;;;;;;;1.93;1.83;;;;;;;22.93;52.51;100533.03;5093816;28;20817;-48
2022/07/19 05:21:10;;;;;;;4.30;1.30;;;;;;;23.00;52.91;100535.13;5093943;28;20464;-48
2022/07/19 05:23:36;;;;;;;2.23;1.50;;;;;;;23.09;51.91;100539.00;5093550;28;20452;-48
2022/07/19 05:26:03;;;;;;;8.30;1.10;;;;;;;23.25;51.42;100544.97;5083503;28;20453;-48
2022/07/19 05:28:29;;;;;;;11.53;1.00;;;;;;;23.62;51.33;100542.13;5090611;28;20493;-48
2022/07/19 05:31:02;;;;;;;1.20;0.97;;;;;;;23.46;51.01;100541.59;5093843;28;20479;-48
2022/07/19 05:33:29;;;;;;;2.97;1.60;;;;;;;23.79;49.57;100540.78;5091317;28;20461;-48
2022/07/19 05:35:56;;;;;;;4.73;1.07;;;;;;;24.02;48.46;100539.81;5093541;28;20849;-50
2022/07/19 05:38:23;;;;;;;2.40;1.00;;;;;;;24.04;49.36;100542.41;5093150;28;20548;-49
2022/07/19 05:40:49;;;;;;;1.13;0.97;;;;;;;24.14;48.49;100547.00;5093786;28;20451;-48
2022/07/19 05:43:17;;;;;;;1.87;1.00;;;;;;;23.97;49.11;100549.31;5093507;28;20448;-49
2022/07/19 05:45:44;;;;;;;6.80;1.57;;;;;;;24.22;48.53;100549.06;5093496;28;20445;-48
2022/07/19 05:48:10;;;;;;;8.80;0.90;;;;;;;24.33;48.08;100548.22;5093025;28;21039;-48
2022/07/19 05:50:37;;;;;;;1.10;1.00;;;;;;;24.42;48.28;100542.91;5093758;28;20445;-48
2022/07/19 05:53:03;;;;;;;2.07;1.07;;;;;;;24.35;48.49;100541.66;5092451;28;20449;-48
2022/07/19 05:55:30;;;;;;;1.60;1.50;;;;;;;24.59;48.08;100541.50;5093150;28;20832;-49
2022/07/19 05:57:56;;;;;;;2.20;1.03;;;;;;;25.22;47.11;100542.56;5091997;28;20464;-48
2022/07/19 06:00:23;;;;;;;15.77;2.90;;;;;;;25.28;46.01;100541.16;5092967;28;20449;-49
2022/07/19 06:02:49;;;;;;;2.27;1.50;;;;;;;25.40;46.96;100548.25;5092942;28;20460;-48
2022/07/19 06:05:17;;;;;;;1.27;0.93;;;;;;;25.04;48.21;100553.13;5092923;28;20448;-48
2022/07/19 06:07:43;;;;;;;13.83;1.83;;;;;;;25.22;48.19;100556.16;5095061;28;20467;-48
2022/07/19 06:10:09;;;;;;;1.77;1.67;;;;;;;25.28;48.22;100552.91;5095664;28;20488;-48
2022/07/19 06:12:36;;;;;;;1.53;1.43;;;;;;;25.55;46.65;100546.94;5093074;28;20452;-48
2022/07/19 06:15:03;;;;;;;1.40;1.23;;;;;;;25.47;46.68;100549.44;5092665;28;20444;-48
2022/07/19 06:17:30;;;;;;;1.23;1.10;;;;;;;25.35;46.96;100547.78;5092472;28;20511;-48
2022/07/19 06:19:57;;;;;;;9.70;1.30;;;;;;;25.31;46.71;100549.03;5092556;28;20450;-48
2022/07/19 06:22:23;;;;;;;4.17;1.70;;;;;;;25.85;45.07;100537.09;5093152;28;20445;-48
2022/07/19 06:24:49;;;;;;;0.90;0.90;;;;;;;25.80;44.70;100536.63;5092666;28;20445;-50
2022/07/19 06:27:16;;;;;;;0.93;0.80;;;;;;;25.97;45.02;100536.88;5079257;28;20452;-48
2022/07/19 06:29:42;;;;;;;12.40;1.53;;;;;;;25.84;44.89;100544.41;5092646;28;20492;-48
2022/07/19 06:32:09;;;;;;;2.03;1.57;;;;;;;26.03;44.55;100537.31;5072528;28;20450;-48
2022/07/19 06:34:35;;;;;;;29.27;1.67;;;;;;;26.00;45.12;100543.91;5072068;28;20823;-49
2022/07/19 06:37:02;;;;;;;15.33;1.53;;;;;;;26.21;45.42;100538.41;5072451;28;20460;-48
2022/07/19 06:39:28;;;;;;;13.67;1.80;;;;;;;25.98;45.21;100535.84;5071765;28;20998;-50
2022/07/19 06:41:54;;;;;;;1.10;1.00;;;;;;;25.48;46.91;100545.72;5071796;28;20450;-49
2022/07/19 06:44:21;;;;;;;18.97;2.50;;;;;;;26.01;45.68;100537.44;5072095;28;20452;-49
2022/07/19 06:46:47;;;;;;;1.80;1.70;;;;;;;26.31;43.73;100538.41;5072153;28;20450;-49
2022/07/19 06:49:20;;;;;;;1.77;1.37;;;;;;;26.41;43.50;100542.06;5072038;28;20494;-48
2022/07/19 06:51:46;;;;;;;12.13;1.77;;;;;;;26.45;43.60;100538.06;5071965;28;20476;-48
2022/07/19 06:54:13;;;;;;;13.07;1.43;;;;;;;26.64;43.12;100542.72;5072063;28;20524;-48
2022/07/19 06:56:39;;;;;;;1.77;1.67;;;;;;;26.33;43.45;100544.63;5072128;28;20449;-49
2022/07/19 06:59:06;;;;;;;1.77;1.57;;;;;;;26.64;42.79;100549.03;5072157;28;20505;-49
2022/07/19 07:01:32;;;;;;;1.53;1.43;;;;;;;26.70;42.95;100553.03;5071689;28;20450;-49
2022/07/19 07:03:59;;;;;;;1.67;1.57;;;;;;;26.40;43.84;100540.34;5071424;28;20962;-49
2022/07/19 07:06:25;;;;;;;9.07;1.20;;;;;;;26.55;43.06;100545.25;5071707;28;20458;-49
2022/07/19 07:08:52;;;;;;;8.67;1.97;;;;;;;26.53;43.36;100540.97;5071902;28;20470;-50
2022/07/19 07:11:18;;;;;;;1.93;0.83;;;;;;;27.04;43.31;100540.78;5080048;28;20445;-49
2022/07/19 07:13:45;;;;;;;2.80;2.27;;;;;;;27.07;42.96;100540.47;5091753;28;20449;-50
2022/07/19 07:16:11;;;;;;;3.40;1.10;;;;;;;26.58;44.27;100541.38;5091885;28;20498;-50
2022/07/19 07:18:38;;;;;;;5.60;1.50;;;;;;;26.89;43.73;100539.44;5091608;28;21029;-49
2022/07/19 07:21:04;;;;;;;7.77;2.60;;;;;;;26.86;43.71;100542.44;5092218;28;20476;-49
2022/07/19 07:23:31;;;;;;;1.43;1.33;;;;;;;26.98;43.74;100534.97;5092049;28;20456;-48
2022/07/19 07:25:58;;;;;;;8.87;1.50;;;;;;;26.92;43.32;100538.28;5082248;28;20880;-49
2022/07/19 07:28:25;;;;;;;2.23;1.80;;;;;;;27.11;42.98;100535.59;5088440;28;20477;-48
2022/07/19 07:30:52;;;;;;;1.60;1.17;;;;;;;27.15;43.44;100537.03;5082247;28;20489;-49
2022/07/19 07:33:19;;;;;;;3.10;1.50;;;;;;;27.34;42.98;100538.88;5088535;28;20459;-49
2022/07/19 07:35:45;;;;;;;6.47;2.57;;;;;;;27.58;42.84;100531.09;5092174;28;20456;-49
2022/07/19 07:38:12;;;;;;;4.73;1.13;;;;;;;27.89;42.51;100526.28;5091847;28;20465;-49
2022/07/19 07:40:42;;;;;;;1.87;1.33;;;;;;;27.77;42.02;100527.47;5091911;28;20528;-49
2022/07/19 07:43:08;;;;;;;1.73;1.60;;;;;;;28.02;39.94;100529.53;5091676;28;20890;-49
2022/07/19 07:45:38;;;;;;;38.97;2.03;;;;;;;28.21;39.65;100534.03;5092288;28;20441;-49
2022/07/19 07:48:04;;;;;;;1.27;1.17;;;;;;;28.39;39.49;100520.47;5091699;28;20468;-49
2022/07/19 07:50:31;;;;;;;1.47;1.37;;;;;;;28.87;39.23;100520.16;5092109;28;20495;-50
2022/07/19 07:52:58;;;;;;;1.80;1.10;;;;;;;28.77;39.60;100512.97;5092040;28;20445;-50
2022/07/19 07:55:24;;;;;;;1.27;1.10;;;;;;;28.73;39.38;100515.19;5092185;28;20809;-50
2022/07/19 07:57:55;;;;;;;11.80;1.53;;;;;;;28.99;38.87;100512.56;5090204;28;20461;-49
2022/07/19 08:00:21;;;;;;;1.27;1.13;;;;;;;28.83;39.66;100512.38;5092003;28;20448;-50
2022/07/19 08:02:49;;;;;;;1.40;1.30;;;;;;;29.18;38.91;100512.38;5091492;28;20875;-51
2022/07/19 08:05:21;;;;;;;10.63;1.40;;;;;;;29.85;38.55;100511.84;5092014;28;20463;-51
2022/07/19 08:07:48;;;;;;;11.10;1.93;;;;;;;29.54;39.04;100500.53;5091417;28;20970;-51
2022/07/19 08:10:19;;;;;;;10.93;1.87;;;;;;;29.46;38.54;100507.66;5091824;28;20473;-50
2022/07/19 08:12:45;;;;;;;32.13;2.70;;;;;;;29.88;37.75;100498.69;5091927;28;20456;-52
2022/07/19 08:15:13;;;;;;;4.93;1.57;;;;;;;29.94;38.57;100500.78;5091873;28;20449;-51
2022/07/19 08:17:39;;;;;;;16.13;2.20;;;;;;;29.98;38.30;100502.16;5095177;28;20465;-51
2022/07/19 08:20:06;;;;;;;13.90;3.03;;;;;;;30.26;37.52;100500.09;5095111;28;20444;-51
2022/07/19 08:22:33;;;;;;;3.53;1.27;;;;;;;30.40;37.39;100498.59;5096600;28;20528;-51
2022/07/19 08:25:00;;;;;;;6.47;1.20;;;;;;;30.78;37.51;100494.41;5094282;28;20816;-53
2022/07/19 08:27:26;;;;;;;1.63;1.03;;;;;;;30.93;35.93;100486.38;5083620;28;20451;-51
2022/07/19 08:29:52;;;;;;;5.60;1.90;;;;;;;30.57;36.93;100486.66;5094916;28;20515;-52
2022/07/19 08:32:19;;;;;;;3.40;1.17;;;;;;;30.65;36.02;100483.06;5093634;28;20451;-50
2022/07/19 08:34:46;;;;;;;20.00;2.00;;;;;;;31.25;35.32;100477.31;5094630;28;20448;-51
2022/07/19 08:37:12;;;;;;;4.00;1.57;;;;;;;31.75;34.48;100473.47;5094791;28;20452;-51
2022/07/19 08:39:38;;;;;;;12.13;1.30;;;;;;;31.32;35.22;100474.72;5094775;28;20469;-51
2022/07/19 08:42:05;;;;;;;2.80;1.40;;;;;;;30.93;34.79;100479.00;5095110;28;20445;-51
2022/07/19 08:44:34;;;;;;;33.90;1.40;;;;;;;31.03;34.82;100475.22;5094634;28;20445;-51
2022/07/19 08:47:01;;;;;;;22.57;2.80;;;;;;;31.40;33.65;100474.72;5095028;28;20453;-48
2022/07/19 08:49:28;;;;;;;4.20;2.23;;;;;;;31.62;32.99;100473.13;5094630;28;20496;-49
2022/07/19 08:51:55;;;;;;;2.67;1.50;;;;;;;32.00;32.02;100469.59;5095602;28;20456;-53
2022/07/19 08:54:21;;;;;;;4.50;1.27;;;;;;;32.32;31.61;100474.09;5095155;28;20468;-53
2022/07/19 08:59:33;;;;;;;6.20;1.23;;;;;;;32.26;31.55;100466.56;5094398;28;20467;-54
2022/07/19 09:01:59;;;;;;;2.03;1.33;;;;;;;32.29;31.08;100468.97;5094351;28;20451;-54
2022/07/19 09:04:28;;;;;;;1.77;1.67;;;;;;;32.51;31.32;100469.19;5094265;28;20472;-53
2022/07/19 09:06:56;;;;;;;1.70;1.60;;;;;;;32.79;30.07;100458.50;5094759;28;20419;-55
2022/07/19 09:09:30;;;;;;;2.60;1.10;;;;;;;32.62;30.80;100461.38;5074254;28;20474;-54
2022/07/19 09:11:59;;;;;;;5.33;1.00;;;;;;;32.75;30.95;100463.50;5074008;28;20450;-54
2022/07/19 09:14:26;;;;;;;18.73;1.20;;;;;;;33.11;30.57;100454.66;5073824;28;20829;-54
2022/07/19 09:17:16;;;;;;;1.37;0.97;;;;;;;33.27;29.96;100460.88;5073899;28;20424;-54
2022/07/19 09:19:45;;;;;;;2.40;1.53;;;;;;;33.43;30.07;100459.88;5073921;28;20474;-54
2022/07/19 09:22:14;;;;;;;0.80;0.80;;;;;;;33.09;29.58;100446.56;5073721;28;20423;-54
2022/07/19 09:24:43;;;;;;;6.23;1.03;;;;;;;33.25;29.78;100449.16;5085846;28;20941;-54
2022/07/19 09:27:15;;;;;;;1.40;1.07;;;;;;;33.01;29.71;100449.38;5080224;28;20423;-54
2022/07/19 09:29:45;;;;;;;1.63;1.53;;;;;;;33.40;29.68;100446.47;5093505;28;20853;-54
2022/07/19 09:32:15;;;;;;;1.20;1.10;;;;;;;33.63;29.75;100451.06;5092206;28;20453;-54
2022/07/19 09:34:48;;;;;;;1.20;0.90;;;;;;;33.78;28.94;100446.41;5093859;28;20452;-54
2022/07/19 09:37:18;;;;;;;1.17;0.83;;;;;;;33.09;28.25;100445.72;5093892;28;20449;-53
2022/07/19 09:39:48;;;;;;;1.17;1.07;;;;;;;33.14;28.48;100438.59;5093604;28;20956;-53
2022/07/19 09:42:34;;;;;;;7.67;1.50;;;;;;;33.44;28.96;100441.44;5094103;28;20569;-54
2022/07/19 09:45:05;;;;;;;4.93;1.57;;;;;;;33.50;28.39;100440.69;5093844;28;20437;-54
2022/07/19 09:47:43;;;;;;;3.20;1.10;;;;;;;33.92;28.93;100436.44;5093246;28;20810;-54
2022/07/19 09:50:18;;;;;;;1.33;1.23;;;;;;;33.93;27.36;100439.00;5081445;28;20922;-53
2022/07/19 09:52:47;;;;;;;4.20;0.80;;;;;;;33.96;27.68;100433.09;5093539;28;20464;-54
2022/07/19 09:55:16;;;;;;;1.90;1.80;;;;;;;34.43;27.48;100434.56;5093401;28;20445;-54
2022/07/19 09:57:45;;;;;;;0.87;0.87;;;;;;;34.44;27.73;100433.50;5092313;28;20444;-53
2022/07/19 10:00:14;;;;;;;3.90;0.93;;;;;;;34.52;28.26;100418.69;5093479;28;20441;-53
2022/07/19 10:02:43;;;;;;;0.83;0.80;;;;;;;34.69;26.99;100426.56;5093440;28;20427;-54
2022/07/19 10:05:11;;;;;;;0.63;0.60;;;;;;;34.68;27.47;100424.84;5093816;28;20423;-54
2022/07/19 10:07:39;;;;;;;1.00;0.93;;;;;;;34.63;26.58;100427.31;5093283;28;20424;-55
2022/07/19 10:10:12;;;;;;;2.53;0.93;;;;;;;34.67;27.35;100430.53;5092977;28;20495;-54
2022/07/19 10:12:40;;;;;;;24.77;1.50;;;;;;;35.01;26.25;100421.56;5079917;28;20543;-55
2022/07/19 10:15:08;;;;;;;1.43;1.33;;;;;;;34.84;27.44;100422.88;5093074;28;20449;-54
2022/07/19 10:17:47;;;;;;;2.13;0.87;;;;;;;34.96;26.74;100422.16;5092723;28;20540;-55
2022/07/19 10:20:19;;;;;;;1.50;1.40;;;;;;;35.06;25.93;100410.75;5093270;28;20441;-55
2022/07/19 10:22:46;;;;;;;10.03;0.80;;;;;;;35.15;25.99;100428.06;5093043;28;20453;-54
2022/07/19 10:25:14;;;;;;;0.80;0.80;;;;;;;34.98;26.25;100405.38;5093038;28;20441;-54
2022/07/19 10:27:43;;;;;;;2.40;1.33;;;;;;;35.14;25.87;100409.75;5084964;28;20965;-54
2022/07/19 10:30:09;;;;;;;1.97;1.57;;;;;;;34.64;24.81;100400.56;5092476;28;21009;-54
2022/07/19 10:32:38;;;;;;;2.80;1.00;;;;;;;35.14;25.38;100396.78;5090819;28;20514;-54
2022/07/19 10:35:29;;;;;;;2.00;1.23;;;;;;;35.06;24.59;100396.94;5092379;28;20456;-54
2022/07/19 10:38:02;;;;;;;1.30;0.87;;;;;;;35.32;24.36;100397.13;5092899;28;20472;-54
2022/07/19 10:40:34;;;;;;;1.23;1.00;;;;;;;35.24;25.56;100390.91;5092584;28;20445;-54
2022/07/19 10:43:07;;;;;;;0.80;0.73;;;;;;;35.47;24.65;100390.66;5092813;28;20424;-55
2022/07/19 10:45:35;;;;;;;0.60;0.60;;;;;;;35.61;24.46;100387.75;5092906;28;20514;-55
2022/07/19 10:48:07;;;;;;;2.47;0.90;;;;;;;35.83;24.47;100390.44;5092337;28;20831;-55
2022/07/19 10:50:50;;;;;;;1.53;1.13;;;;;;;35.62;23.93;100386.69;5092228;28;20995;-54
2022/07/19 10:53:42;;;;;;;2.50;1.00;;;;;;;35.93;23.98;100384.56;5079546;28;20498;-55
2022/07/19 10:56:16;;;;;;;1.50;1.23;;;;;;;35.95;23.91;100374.97;5090645;28;20950;-55
2022/07/19 10:58:48;;;;;;;6.30;1.53;;;;;;;35.90;23.89;100366.41;5092430;28;20465;-55
2022/07/19 11:01:18;;;;;;;1.20;1.10;;;;;;;36.06;24.35;100365.22;5092245;28;20448;-55
2022/07/19 11:03:47;;;;;;;1.47;1.37;;;;;;;36.36;24.14;100360.22;5092593;28;20424;-55
2022/07/19 11:06:25;;;;;;;1.10;0.70;;;;;;;36.27;24.63;100361.44;5092370;28;20445;-55
2022/07/19 11:08:58;;;;;;;6.40;0.80;;;;;;;35.99;23.26;100354.13;5092134;28;20830;-55
2022/07/19 11:11:28;;;;;;;1.63;1.17;;;;;;;36.29;23.39;100349.09;5092035;28;20477;-55
2022/07/19 11:14:00;;;;;;;1.30;1.20;;;;;;;35.74;24.06;100351.00;5092169;28;20445;-54
2022/07/19 11:16:28;;;;;;;0.70;0.63;;;;;;;36.25;23.69;100350.56;5092368;28;20507;-55
2022/07/19 11:19:05;;;;;;;1.17;1.00;;;;;;;36.29;23.80;100343.53;5091915;28;20476;-54
2022/07/19 11:21:34;;;;;;;1.20;1.10;;;;;;;35.35;23.10;100346.09;5092007;28;20425;-55
2022/07/19 11:24:05;;;;;;;1.53;1.33;;;;;;;36.02;23.22;100344.53;5091857;28;20448;-55
2022/07/19 11:26:37;;;;;;;9.33;1.07;;;;;;;36.24;22.93;100334.16;5078844;28;20455;-55
2022/07/19 11:29:12;;;;;;;2.30;1.00;;;;;;;36.30;22.25;100339.72;5092087;28;20435;-55
2022/07/19 11:31:47;;;;;;;7.30;1.53;;;;;;;36.40;21.61;100336.56;5089411;28;20488;-55